createdAt,value
2022-08-18T00:00:40.724Z,100.00
2022-08-18T00:01:55.361Z,100.00
2022-08-18T00:03:14.223Z,100.00
2022-08-18T00:04:36.464Z,100.00
2022-08-18T00:05:46.653Z,100.00
2022-08-18T00:06:49.013Z,100.00
2022-08-18T00:07:51.398Z,100.00
2022-08-18T00:08:53.616Z,100.00
2022-08-18T00:09:56.357Z,100.00
2022-08-18T00:10:58.768Z,100.00
2022-08-18T00:12:04.475Z,100.00
2022-08-18T00:13:06.768Z,100.00
2022-08-18T00:14:21.442Z,100.00
2022-08-18T00:15:25.572Z,100.00
2022-08-18T00:16:27.973Z,100.00
2022-08-18T00:17:31.260Z,100.00
2022-08-18T00:18:33.725Z,100.00
2022-08-18T00:19:46.489Z,100.00
2022-08-18T00:20:50.440Z,100.00
2022-08-18T00:21:52.884Z,100.00
2022-08-18T00:22:56.584Z,100.00
2022-08-18T00:23:58.868Z,100.00
2022-08-18T00:25:01.677Z,100.00
2022-08-18T00:26:04.586Z,100.00
2022-08-18T00:27:06.941Z,100.00
2022-08-18T00:28:09.921Z,100.00
2022-08-18T00:29:12.398Z,100.00
2022-08-18T00:30:18.325Z,100.00
2022-08-18T00:31:20.567Z,100.00
2022-08-18T00:32:26.337Z,100.00
2022-08-18T00:33:28.626Z,100.00
2022-08-18T00:34:30.864Z,100.00
2022-08-18T00:35:38.196Z,100.00
2022-08-18T00:36:41.111Z,100.00
2022-08-18T00:37:43.697Z,100.00
2022-08-18T00:38:46.059Z,100.00
2022-08-18T00:39:52.042Z,100.00
2022-08-18T00:40:56.723Z,100.00
2022-08-18T00:41:58.978Z,100.00
2022-08-18T00:43:04.800Z,100.00
2022-08-18T00:44:07.245Z,100.00
2022-08-18T00:45:15.569Z,100.00
2022-08-18T00:46:24.678Z,100.00
2022-08-18T00:47:41.979Z,100.00
2022-08-18T00:48:48.715Z,100.00
2022-08-18T00:49:53.101Z,100.00
2022-08-18T00:51:02.755Z,100.00
2022-08-18T00:52:05.873Z,100.00
2022-08-18T00:53:27.595Z,100.00
2022-08-18T00:54:33.122Z,100.00
2022-08-18T00:55:36.521Z,100.00
2022-08-18T00:56:44.134Z,100.00
2022-08-18T00:57:50.284Z,100.00
2022-08-18T00:58:59.199Z,100.00
2022-08-18T01:00:13.310Z,100.00
2022-08-18T01:01:18.812Z,100.00
2022-08-18T01:02:33.469Z,100.00
2022-08-18T01:03:39.909Z,100.00
2022-08-18T01:04:47.426Z,100.00
2022-08-18T01:05:59.424Z,100.00
2022-08-18T01:07:07.010Z,100.00
2022-08-18T01:08:14.499Z,100.00
2022-08-18T01:09:17.963Z,100.00
2022-08-18T01:10:22.869Z,100.00
2022-08-18T01:11:25.268Z,100.00
2022-08-18T01:12:45.517Z,100.00
2022-08-18T01:13:49.216Z,100.00
2022-08-18T01:14:51.633Z,100.00
2022-08-18T01:15:53.926Z,100.00
2022-08-18T01:17:15.007Z,100.00
2022-08-18T01:18:35.671Z,100.00
2022-08-18T01:19:57.466Z,100.00
2022-08-18T01:21:35.756Z,100.00
2022-08-18T01:22:49.959Z,100.00
2022-08-18T01:23:54.555Z,100.00
2022-08-18T01:25:18.612Z,100.00
2022-08-18T01:26:22.724Z,100.00
2022-08-18T01:27:26.788Z,100.00
2022-08-18T01:28:49.380Z,100.00
2022-08-18T01:29:51.782Z,100.00
2022-08-18T01:30:58.103Z,100.00
2022-08-18T01:32:00.501Z,100.00
2022-08-18T01:33:02.770Z,100.00
2022-08-18T01:34:07.620Z,100.00
2022-08-18T01:35:11.549Z,100.00
2022-08-18T01:36:20.214Z,100.00
2022-08-18T01:37:24.271Z,100.00
2022-08-18T01:38:26.989Z,100.00
2022-08-18T01:41:23.717Z,100.00
2022-08-18T01:41:23.889Z,100.00
2022-08-18T01:42:17.331Z,100.00
2022-08-18T01:43:20.844Z,100.00
2022-08-18T01:44:23.083Z,100.00
2022-08-18T01:45:26.299Z,100.00
2022-08-18T01:46:33.599Z,100.00
2022-08-18T01:47:47.387Z,100.00
2022-08-18T01:48:52.100Z,100.00
2022-08-18T01:49:54.378Z,100.00
2022-08-18T01:50:57.033Z,100.00
2022-08-18T01:52:02.220Z,100.00
2022-08-18T01:53:07.605Z,100.00
2022-08-18T01:54:13.711Z,100.00
2022-08-18T01:55:16.130Z,100.00
2022-08-18T01:56:18.534Z,100.00
2022-08-18T01:57:21.671Z,100.00
2022-08-18T01:58:31.429Z,100.00
2022-08-18T01:59:35.246Z,100.00
2022-08-18T02:00:37.975Z,100.00
2022-08-18T02:01:48.450Z,100.00
2022-08-18T02:03:01.957Z,100.00
2022-08-18T02:04:33.332Z,100.00
2022-08-18T02:05:36.564Z,100.00
2022-08-18T02:06:40.545Z,100.00
2022-08-18T02:07:48.833Z,100.00
2022-08-18T02:08:56.561Z,100.00
2022-08-18T02:09:59.560Z,100.00
2022-08-18T02:11:03.330Z,100.00
2022-08-18T02:12:07.571Z,100.00
2022-08-18T02:13:10.267Z,100.00
2022-08-18T02:14:12.527Z,100.00
2022-08-18T02:15:14.800Z,100.00
2022-08-18T02:16:17.307Z,100.00
2022-08-18T02:17:19.888Z,100.00
2022-08-18T02:18:47.403Z,100.00
2022-08-18T02:19:49.761Z,100.00
2022-08-18T02:20:52.292Z,100.00
2022-08-18T02:21:54.607Z,100.00
2022-08-18T02:22:58.597Z,100.00
2022-08-18T02:24:01.148Z,100.00
2022-08-18T02:25:05.141Z,100.00
2022-08-18T02:26:12.140Z,100.00
2022-08-18T02:27:15.952Z,100.00
2022-08-18T02:28:18.213Z,100.00
2022-08-18T02:29:20.491Z,100.00
2022-08-18T02:30:23.277Z,100.00
2022-08-18T02:31:25.812Z,100.00
2022-08-18T02:32:29.488Z,100.00
2022-08-18T02:33:32.039Z,100.00
2022-08-18T02:34:35.024Z,100.00
2022-08-18T02:35:38.683Z,100.00
2022-08-18T02:36:40.936Z,100.00
2022-08-18T02:37:47.910Z,100.00
2022-08-18T02:38:56.604Z,100.00
2022-08-18T02:40:02.524Z,100.00
2022-08-18T02:41:06.717Z,100.00
2022-08-18T02:42:09.220Z,100.00
2022-08-18T02:43:11.519Z,100.00
2022-08-18T02:44:14.283Z,100.00
2022-08-18T02:45:16.586Z,100.00
2022-08-18T02:46:19.192Z,100.00
2022-08-18T02:47:22.275Z,100.00
2022-08-18T02:48:32.957Z,100.00
2022-08-18T02:49:36.822Z,100.00
2022-08-18T02:50:48.471Z,100.00
2022-08-18T02:51:52.279Z,100.00
2022-08-18T02:52:54.800Z,100.00
2022-08-18T02:54:00.620Z,100.00
2022-08-18T02:55:03.619Z,100.00
2022-08-18T02:56:40.784Z,100.00
2022-08-18T02:57:49.058Z,100.00
2022-08-18T02:58:54.818Z,100.00
2022-08-18T02:59:57.450Z,100.00
2022-08-18T03:01:02.133Z,100.00
2022-08-18T03:02:06.514Z,100.00
2022-08-18T03:03:09.008Z,100.00
2022-08-18T03:04:14.247Z,100.00
2022-08-18T03:05:17.458Z,100.00
2022-08-18T03:06:21.062Z,100.00
2022-08-18T03:07:24.104Z,100.00
2022-08-18T03:08:26.405Z,100.00
2022-08-18T03:09:29.663Z,100.00
2022-08-18T03:10:34.242Z,100.00
2022-08-18T03:11:37.512Z,100.00
2022-08-18T03:12:42.435Z,100.00
2022-08-18T03:13:46.340Z,100.00
2022-08-18T03:14:50.855Z,100.00
2022-08-18T03:15:56.700Z,100.00
2022-08-18T03:17:00.506Z,100.00
2022-08-18T03:18:02.900Z,100.00
2022-08-18T03:19:05.243Z,100.00
2022-08-18T03:20:07.737Z,100.00
2022-08-18T03:21:14.876Z,100.00
2022-08-18T03:22:27.685Z,100.00
2022-08-18T03:23:31.761Z,100.00
2022-08-18T03:24:34.527Z,100.00
2022-08-18T03:25:37.224Z,100.00
2022-08-18T03:26:42.416Z,100.00
2022-08-18T03:27:44.750Z,100.00
2022-08-18T03:28:49.265Z,100.00
2022-08-18T03:29:51.684Z,100.00
2022-08-18T03:30:54.091Z,100.00
2022-08-18T03:31:56.403Z,100.00
2022-08-18T03:32:58.717Z,100.00
2022-08-18T03:34:01.568Z,100.00
2022-08-18T03:35:04.495Z,100.00
2022-08-18T03:36:14.173Z,100.00
2022-08-18T03:37:16.494Z,100.00
2022-08-18T03:38:18.711Z,100.00
2022-08-18T03:39:23.594Z,100.00
2022-08-18T03:40:26.097Z,100.00
2022-08-18T03:41:44.409Z,100.00
2022-08-18T03:42:51.163Z,100.00
2022-08-18T03:43:53.417Z,100.00
2022-08-18T03:44:55.763Z,100.00
2022-08-18T03:46:09.648Z,100.00
2022-08-18T03:47:11.946Z,100.00
2022-08-18T03:48:14.402Z,100.00
2022-08-18T03:49:18.158Z,100.00
2022-08-18T03:50:21.538Z,100.00
2022-08-18T03:51:29.136Z,100.00
2022-08-18T03:52:31.435Z,100.00
2022-08-18T03:53:37.886Z,100.00
2022-08-18T03:54:40.825Z,100.00
2022-08-18T03:55:43.561Z,100.00
2022-08-18T03:56:47.156Z,100.00
2022-08-18T03:57:52.785Z,100.00
2022-08-18T03:58:58.755Z,100.00
2022-08-18T04:00:01.497Z,100.00
2022-08-18T04:01:07.973Z,100.00
2022-08-18T04:02:11.596Z,100.00
2022-08-18T04:03:13.905Z,100.00
2022-08-18T04:04:19.635Z,100.00
2022-08-18T04:05:22.200Z,100.00
2022-08-18T04:06:30.285Z,100.00
2022-08-18T04:07:32.881Z,100.00
2022-08-18T04:08:35.159Z,100.00
2022-08-18T04:09:38.848Z,100.00
2022-08-18T04:10:44.165Z,100.00
2022-08-18T04:11:46.926Z,100.00
2022-08-18T04:12:51.734Z,100.00
2022-08-18T04:13:57.788Z,100.00
2022-08-18T04:15:00.005Z,100.00
2022-08-18T04:16:02.296Z,100.00
2022-08-18T04:17:05.382Z,100.00
2022-08-18T04:18:08.926Z,100.00
2022-08-18T04:19:13.608Z,100.00
2022-08-18T04:20:16.415Z,100.00
2022-08-18T04:21:19.124Z,100.00
2022-08-18T04:22:22.598Z,100.00
2022-08-18T04:23:25.025Z,100.00
2022-08-18T04:24:31.871Z,100.00
2022-08-18T04:25:35.518Z,100.00
2022-08-18T04:26:45.247Z,100.00
2022-08-18T04:27:47.597Z,100.00
2022-08-18T04:28:49.971Z,100.00
2022-08-18T04:29:52.267Z,100.00
2022-08-18T04:30:59.520Z,100.00
2022-08-18T04:32:05.997Z,100.00
2022-08-18T04:33:08.437Z,100.00
2022-08-18T04:34:12.120Z,100.00
2022-08-18T04:35:14.559Z,100.00
2022-08-18T04:36:20.519Z,100.00
2022-08-18T04:37:23.203Z,100.00
2022-08-18T04:38:25.550Z,100.00
2022-08-18T04:39:28.460Z,100.00
2022-08-18T04:40:33.594Z,100.00
2022-08-18T04:41:38.069Z,100.00
2022-08-18T04:42:43.530Z,100.00
2022-08-18T04:43:48.031Z,100.00
2022-08-18T04:44:51.660Z,100.00
2022-08-18T04:45:54.056Z,100.00
2022-08-18T04:46:56.470Z,100.00
2022-08-18T04:47:58.739Z,100.00
2022-08-18T04:49:01.047Z,100.00
2022-08-18T04:50:03.980Z,100.00
2022-08-18T04:51:09.364Z,100.00
2022-08-18T04:52:40.525Z,100.00
2022-08-18T04:53:44.943Z,100.00
2022-08-18T04:54:47.225Z,100.00
2022-08-18T04:55:54.278Z,100.00
2022-08-18T04:56:56.580Z,100.00
2022-08-18T04:57:59.486Z,100.00
2022-08-18T04:59:03.236Z,100.00
2022-08-18T05:00:07.304Z,100.00
2022-08-18T05:01:10.038Z,100.00
2022-08-18T05:02:14.857Z,100.00
2022-08-18T05:03:17.544Z,100.00
2022-08-18T05:04:19.894Z,100.00
2022-08-18T05:05:23.516Z,100.00
2022-08-18T05:06:28.093Z,100.00
2022-08-18T05:07:30.513Z,100.00
2022-08-18T05:08:32.917Z,100.00
2022-08-18T05:09:41.302Z,100.00
2022-08-18T05:10:43.846Z,100.00
2022-08-18T05:11:46.163Z,100.00
2022-08-18T05:12:48.717Z,100.00
2022-08-18T05:13:54.573Z,100.00
2022-08-18T05:14:57.265Z,100.00
2022-08-18T05:16:16.855Z,100.00
2022-08-18T05:17:20.622Z,100.00
2022-08-18T05:18:24.588Z,100.00
2022-08-18T05:19:30.827Z,100.00
2022-08-18T05:20:34.886Z,100.00
2022-08-18T05:21:41.959Z,100.00
2022-08-18T05:22:45.500Z,100.00
2022-08-18T05:23:49.660Z,100.00
2022-08-18T05:24:52.558Z,100.00
2022-08-18T05:26:00.441Z,100.00
2022-08-18T05:27:03.666Z,100.00
2022-08-18T05:28:06.060Z,100.00
2022-08-18T05:29:18.478Z,100.00
2022-08-18T05:30:22.068Z,100.00
2022-08-18T05:31:26.682Z,100.00
2022-08-18T05:32:47.385Z,100.00
2022-08-18T05:33:52.137Z,100.00
2022-08-18T05:34:54.616Z,100.00
2022-08-18T05:36:05.411Z,100.00
2022-08-18T05:37:22.637Z,100.00
2022-08-18T05:38:53.539Z,100.00
2022-08-18T05:40:04.332Z,100.00
2022-08-18T05:41:24.433Z,100.00
2022-08-18T05:42:29.062Z,100.00
2022-08-18T05:43:31.888Z,100.00
2022-08-18T05:44:47.135Z,100.00
2022-08-18T05:45:51.711Z,100.00
2022-08-18T05:46:57.020Z,100.00
2022-08-18T05:48:00.014Z,100.00
2022-08-18T05:49:02.583Z,100.00
2022-08-18T05:50:19.356Z,100.00
2022-08-18T05:51:34.545Z,100.00
2022-08-18T05:52:56.516Z,100.00
2022-08-18T05:54:18.131Z,100.00
2022-08-18T05:55:47.796Z,100.00
2022-08-18T05:56:52.960Z,100.00
2022-08-18T05:58:01.870Z,100.00
2022-08-18T05:59:05.057Z,100.00
2022-08-18T06:00:10.791Z,100.00
2022-08-18T06:01:21.574Z,100.00
2022-08-18T06:02:38.585Z,100.00
2022-08-18T06:03:49.821Z,100.00
2022-08-18T06:04:57.040Z,100.00
2022-08-18T06:06:02.216Z,100.00
2022-08-18T06:07:09.514Z,100.00
2022-08-18T06:08:14.372Z,100.00
2022-08-18T06:09:43.521Z,100.00
2022-08-18T06:10:48.676Z,100.00
2022-08-18T06:11:51.334Z,100.00
2022-08-18T06:12:57.477Z,100.00
2022-08-18T06:14:00.372Z,100.00
2022-08-18T06:15:27.565Z,100.00
2022-08-18T06:16:54.047Z,100.00
2022-08-18T06:18:20.150Z,100.00
2022-08-18T06:19:36.901Z,100.00
2022-08-18T06:20:59.693Z,100.00
2022-08-18T06:22:14.775Z,100.00
2022-08-18T06:23:19.845Z,100.00
2022-08-18T06:24:36.132Z,100.00
2022-08-18T06:26:16.903Z,100.00
2022-08-18T06:27:31.315Z,100.00
2022-08-18T06:29:06.214Z,100.00
2022-08-18T06:30:27.374Z,100.00
2022-08-18T06:31:45.028Z,100.00
2022-08-18T06:33:12.549Z,100.00
2022-08-18T06:34:40.655Z,100.00
2022-08-18T06:35:50.177Z,100.00
2022-08-18T06:37:04.460Z,100.00
2022-08-18T06:38:32.700Z,100.00
2022-08-18T06:39:43.407Z,100.00
2022-08-18T06:40:48.116Z,100.00
2022-08-18T06:41:53.559Z,100.00
2022-08-18T06:42:55.857Z,100.00
2022-08-18T06:44:04.813Z,100.00
2022-08-18T06:45:12.812Z,100.00
2022-08-18T06:46:21.890Z,100.00
2022-08-18T06:47:44.537Z,100.00
2022-08-18T06:48:54.308Z,100.00
2022-08-18T06:50:20.559Z,100.00
2022-08-18T06:51:27.556Z,100.00
2022-08-18T06:52:33.858Z,100.00
2022-08-18T06:53:54.689Z,100.00
2022-08-18T06:54:59.737Z,100.00
2022-08-18T06:56:25.741Z,100.00
2022-08-18T06:57:52.847Z,100.00
2022-08-18T06:59:13.332Z,100.00
2022-08-18T07:00:18.139Z,100.00
2022-08-18T07:01:24.396Z,100.00
2022-08-18T07:02:55.430Z,100.00
2022-08-18T07:03:58.228Z,100.00
2022-08-18T07:05:22.100Z,100.00
2022-08-18T07:06:30.361Z,100.00
2022-08-18T07:07:41.167Z,100.00
2022-08-18T07:08:45.076Z,100.00
2022-08-18T07:09:49.337Z,100.00
2022-08-18T07:10:52.834Z,100.00
2022-08-18T07:12:02.515Z,100.00
2022-08-18T07:13:08.604Z,100.00
2022-08-18T07:14:21.089Z,100.00
2022-08-18T07:15:24.276Z,100.00
2022-08-18T07:16:54.508Z,100.00
2022-08-18T07:18:05.031Z,100.00
2022-08-18T07:19:13.083Z,100.00
2022-08-18T07:20:21.717Z,100.00
2022-08-18T07:21:30.054Z,100.00
2022-08-18T07:22:39.214Z,100.00
2022-08-18T07:23:42.119Z,100.00
2022-08-18T07:24:47.563Z,100.00
2022-08-18T07:25:58.155Z,100.00
2022-08-18T07:27:04.793Z,100.00
2022-08-18T07:28:07.216Z,100.00
2022-08-18T07:29:14.690Z,100.00
2022-08-18T07:30:20.081Z,100.00
2022-08-18T07:31:27.895Z,100.00
2022-08-18T07:32:39.543Z,100.00
2022-08-18T07:33:46.496Z,100.00
2022-08-18T07:34:55.010Z,100.00
2022-08-18T07:36:06.951Z,100.00
2022-08-18T07:37:30.047Z,100.00
2022-08-18T07:38:43.073Z,100.00
2022-08-18T07:40:23.745Z,100.00
2022-08-18T07:41:35.630Z,100.00
2022-08-18T07:43:01.291Z,100.00
2022-08-18T07:44:25.528Z,100.00
2022-08-18T07:45:47.426Z,100.00
2022-08-18T07:47:01.938Z,100.00
2022-08-18T07:48:37.206Z,100.00
2022-08-18T07:49:40.750Z,100.00
2022-08-18T07:51:00.170Z,100.00
2022-08-18T07:52:35.824Z,100.00
2022-08-18T07:53:55.649Z,100.00
2022-08-18T07:55:13.736Z,100.00
2022-08-18T07:56:33.077Z,100.00
2022-08-18T07:58:06.027Z,100.00
2022-08-18T07:59:26.646Z,100.00
2022-08-18T08:00:59.923Z,100.00
2022-08-18T08:02:13.565Z,100.00
2022-08-18T08:03:34.391Z,100.00
2022-08-18T08:05:02.056Z,100.00
2022-08-18T08:06:14.988Z,100.00
2022-08-18T08:07:25.108Z,100.00
2022-08-18T08:08:54.894Z,100.00
2022-08-18T08:09:59.946Z,100.00
2022-08-18T08:11:19.147Z,100.00
2022-08-18T08:12:41.292Z,100.00
2022-08-18T08:14:22.904Z,100.00
2022-08-18T08:15:45.524Z,100.00
2022-08-18T08:17:04.528Z,100.00
2022-08-18T08:18:37.927Z,100.00
2022-08-18T08:20:01.017Z,100.00
2022-08-18T08:21:11.012Z,100.00
2022-08-18T08:22:22.890Z,100.00
2022-08-18T08:23:36.974Z,100.00
2022-08-18T08:24:52.177Z,100.00
2022-08-18T08:26:16.050Z,100.00
2022-08-18T08:27:34.327Z,100.00
2022-08-18T08:28:56.002Z,100.00
2022-08-18T08:30:08.457Z,100.00
2022-08-18T08:31:36.595Z,100.00
2022-08-18T08:32:49.160Z,100.00
2022-08-18T08:34:39.299Z,100.00
2022-08-18T08:35:50.373Z,100.00
2022-08-18T08:37:00.994Z,100.00
2022-08-18T08:38:45.921Z,100.00
2022-08-18T08:40:24.279Z,100.00
2022-08-18T08:41:41.428Z,100.00
2022-08-18T08:43:02.643Z,100.00
2022-08-18T08:44:14.944Z,100.00
2022-08-18T08:45:36.912Z,100.00
2022-08-18T08:46:51.880Z,100.00
2022-08-18T08:48:08.397Z,100.00
2022-08-18T08:49:39.601Z,100.00
2022-08-18T08:50:49.824Z,100.00
2022-08-18T08:52:04.974Z,100.00
2022-08-18T08:53:19.673Z,100.00
2022-08-18T08:54:27.465Z,100.00
2022-08-18T08:55:32.698Z,100.00
2022-08-18T08:56:44.268Z,100.00
2022-08-18T08:57:56.037Z,100.00
2022-08-18T08:59:10.204Z,100.00
2022-08-18T09:00:15.010Z,100.00
2022-08-18T09:01:35.182Z,100.00
2022-08-18T09:02:50.411Z,100.00
2022-08-18T09:04:01.448Z,100.00
2022-08-18T09:05:14.575Z,100.00
2022-08-18T09:06:47.759Z,100.00
2022-08-18T09:08:13.498Z,100.00
2022-08-18T09:09:57.105Z,100.00
2022-08-18T09:11:18.971Z,100.00
2022-08-18T09:12:25.380Z,100.00
2022-08-18T09:13:54.126Z,100.00
2022-08-18T09:15:03.755Z,100.00
2022-08-18T09:16:45.065Z,100.00
2022-08-18T09:17:58.891Z,100.00
2022-08-18T09:19:40.994Z,100.00
2022-08-18T09:21:09.083Z,100.00
2022-08-18T09:22:29.823Z,100.00
2022-08-18T09:23:42.423Z,100.00
2022-08-18T09:24:51.355Z,100.00
2022-08-18T09:25:58.512Z,100.00
2022-08-18T09:27:03.694Z,100.00
2022-08-18T09:28:12.777Z,100.00
2022-08-18T09:29:23.299Z,100.00
2022-08-18T09:30:49.288Z,100.00
2022-08-18T09:32:18.303Z,100.00
2022-08-18T09:33:40.415Z,100.00
2022-08-18T09:34:48.559Z,100.00
2022-08-18T09:36:15.301Z,100.00
2022-08-18T09:37:27.822Z,100.00
2022-08-18T09:38:50.584Z,100.00
2022-08-18T09:40:13.102Z,100.00
2022-08-18T09:41:32.216Z,100.00
2022-08-18T09:42:56.980Z,100.00
2022-08-18T09:44:18.273Z,100.00
2022-08-18T09:45:34.309Z,100.00
2022-08-18T09:46:57.561Z,100.00
2022-08-18T09:48:01.345Z,100.00
2022-08-18T09:49:23.799Z,100.00
2022-08-18T09:50:28.778Z,100.00
2022-08-18T09:51:40.111Z,100.00
2022-08-18T09:52:43.463Z,100.00
2022-08-18T09:53:46.807Z,100.00
2022-08-18T09:55:05.978Z,100.00
2022-08-18T09:56:09.066Z,100.00
2022-08-18T09:57:19.661Z,100.00
2022-08-18T09:58:26.310Z,100.00
2022-08-18T09:59:34.901Z,100.00
2022-08-18T10:00:38.193Z,100.00
2022-08-18T10:01:42.031Z,100.00
2022-08-18T10:02:48.805Z,100.00
2022-08-18T10:04:29.201Z,100.00
2022-08-18T10:05:32.023Z,100.00
2022-08-18T10:06:37.611Z,100.00
2022-08-18T10:07:55.933Z,100.00
2022-08-18T10:09:36.290Z,100.00
2022-08-18T10:11:09.266Z,100.00
2022-08-18T10:12:15.881Z,100.00
2022-08-18T10:13:52.290Z,100.00
2022-08-18T10:15:33.265Z,100.00
2022-08-18T10:18:37.512Z,100.00
2022-08-18T10:19:55.069Z,100.00
2022-08-18T10:21:18.771Z,100.00
2022-08-18T10:22:46.687Z,100.00
2022-08-18T10:24:14.801Z,100.00
2022-08-18T10:25:47.497Z,100.00
2022-08-18T10:26:54.111Z,100.00
2022-08-18T10:27:57.825Z,100.00
2022-08-18T10:29:11.275Z,100.00
2022-08-18T10:30:30.531Z,100.00
2022-08-18T10:31:54.866Z,100.00
2022-08-18T10:32:58.387Z,100.00
2022-08-18T10:34:19.391Z,100.00
2022-08-18T10:35:33.620Z,100.00
2022-08-18T10:36:41.963Z,100.00
2022-08-18T10:37:49.165Z,100.00
2022-08-18T10:38:53.466Z,100.00
2022-08-18T10:40:09.983Z,100.00
2022-08-18T10:41:30.977Z,100.00
2022-08-18T10:42:38.066Z,100.00
2022-08-18T10:43:45.908Z,100.00
2022-08-18T10:45:12.162Z,100.00
2022-08-18T10:46:29.459Z,100.00
2022-08-18T10:47:35.012Z,100.00
2022-08-18T10:48:40.251Z,100.00
2022-08-18T10:49:49.269Z,100.00
2022-08-18T10:51:21.535Z,100.00
2022-08-18T10:54:26.381Z,100.00
2022-08-18T10:55:51.475Z,100.00
2022-08-18T10:57:04.142Z,100.00
2022-08-18T10:58:34.656Z,100.00
2022-08-18T11:00:01.095Z,100.00
2022-08-18T11:01:40.123Z,100.00
2022-08-18T11:04:42.460Z,100.00
2022-08-18T11:05:45.065Z,100.00
2022-08-18T11:06:50.392Z,100.00
2022-08-18T11:08:01.157Z,100.00
2022-08-18T11:09:04.027Z,100.00
2022-08-18T11:10:57.579Z,100.00
2022-08-18T11:12:03.760Z,100.00
2022-08-18T11:13:10.149Z,100.00
2022-08-18T11:14:40.708Z,100.00
2022-08-18T11:15:48.801Z,100.00
2022-08-18T11:17:22.310Z,100.00
2022-08-18T11:18:43.155Z,100.00
2022-08-18T11:19:46.821Z,100.00
2022-08-18T11:20:53.784Z,100.00
2022-08-18T11:21:56.267Z,100.00
2022-08-18T11:23:02.339Z,100.00
2022-08-18T11:24:11.140Z,100.00
2022-08-18T11:25:22.294Z,100.00
2022-08-18T11:26:29.486Z,100.00
2022-08-18T11:27:37.948Z,100.00
2022-08-18T11:28:44.923Z,100.00
2022-08-18T11:29:49.229Z,100.00
2022-08-18T11:30:54.260Z,100.00
2022-08-18T11:32:23.045Z,100.00
2022-08-18T11:33:25.655Z,100.00
2022-08-18T11:34:45.476Z,100.00
2022-08-18T11:35:59.235Z,100.00
2022-08-18T11:37:09.889Z,100.00
2022-08-18T11:39:47.586Z,100.00
2022-08-18T11:41:11.769Z,100.00
2022-08-18T11:42:21.868Z,100.00
2022-08-18T11:43:40.980Z,100.00
2022-08-18T11:45:17.561Z,100.00
2022-08-18T11:46:38.593Z,100.00
2022-08-18T11:48:21.052Z,100.00
2022-08-18T11:49:33.687Z,100.00
2022-08-18T11:50:54.504Z,100.00
2022-08-18T11:52:19.581Z,100.00
2022-08-18T11:53:34.579Z,100.00
2022-08-18T11:54:50.680Z,100.00
2022-08-18T11:56:31.570Z,100.00
2022-08-18T11:57:46.247Z,100.00
2022-08-18T11:59:21.350Z,100.00
2022-08-18T12:00:53.799Z,100.00
2022-08-18T12:01:56.419Z,100.00
2022-08-18T12:03:04.808Z,100.00
2022-08-18T12:04:16.564Z,100.00
2022-08-18T12:05:19.725Z,100.00
2022-08-18T12:06:27.922Z,100.00
2022-08-18T12:07:35.794Z,100.00
2022-08-18T12:09:11.281Z,100.00
2022-08-18T12:10:28.322Z,100.00
2022-08-18T12:11:32.596Z,100.00
2022-08-18T12:12:45.878Z,100.00
2022-08-18T12:13:58.860Z,100.00
2022-08-18T12:15:17.539Z,100.00
2022-08-18T12:16:46.529Z,100.00
2022-08-18T12:17:52.148Z,100.00
2022-08-18T12:18:55.529Z,100.00
2022-08-18T12:19:59.752Z,100.00
2022-08-18T12:22:31.000Z,100.00
2022-08-18T12:23:38.667Z,100.00
2022-08-18T12:24:48.514Z,100.00
2022-08-18T12:25:51.735Z,100.00
2022-08-18T12:26:54.897Z,100.00
2022-08-18T12:27:58.382Z,100.00
2022-08-18T12:29:01.145Z,100.00
2022-08-18T12:30:05.509Z,100.00
2022-08-18T12:32:49.665Z,100.00
2022-08-18T12:34:00.999Z,100.00
2022-08-18T12:35:09.771Z,100.00
2022-08-18T12:36:13.522Z,100.00
2022-08-18T12:38:45.651Z,100.00
2022-08-18T12:39:55.812Z,100.00
2022-08-18T12:41:00.134Z,100.00
2022-08-18T12:42:02.660Z,100.00
2022-08-18T12:43:06.342Z,100.00
2022-08-18T12:44:13.448Z,100.00
2022-08-18T12:45:15.967Z,100.00
2022-08-18T12:46:18.345Z,100.00
2022-08-18T12:47:23.970Z,100.00
2022-08-18T12:48:30.273Z,100.00
2022-08-18T12:49:32.595Z,100.00
2022-08-18T12:50:50.252Z,100.00
2022-08-18T12:51:57.783Z,100.00
2022-08-18T12:53:00.801Z,100.00
2022-08-18T12:54:03.309Z,100.00
2022-08-18T12:55:08.686Z,100.00
2022-08-18T12:56:29.992Z,100.00
2022-08-18T12:57:52.164Z,100.00
2022-08-18T12:58:55.327Z,100.00
2022-08-18T12:59:57.654Z,100.00
2022-08-18T13:01:00.442Z,100.00
2022-08-18T13:02:06.877Z,100.00
2022-08-18T13:03:11.581Z,100.00
2022-08-18T13:04:15.645Z,100.00
2022-08-18T13:05:26.415Z,100.00
2022-08-18T13:06:33.785Z,100.00
2022-08-18T13:07:37.035Z,100.00
2022-08-18T13:08:49.892Z,100.00
2022-08-18T13:09:54.391Z,100.00
2022-08-18T13:11:00.426Z,100.00
2022-08-18T13:12:18.405Z,100.00
2022-08-18T13:13:21.969Z,100.00
2022-08-18T13:14:28.522Z,100.00
2022-08-18T13:15:31.018Z,100.00
2022-08-18T13:16:54.117Z,100.00
2022-08-18T13:17:57.587Z,100.00
2022-08-18T13:19:00.089Z,100.00
2022-08-18T13:20:10.540Z,98.43
2022-08-18T13:21:18.472Z,97.41
2022-08-18T13:22:20.859Z,98.03
2022-08-18T13:23:25.164Z,97.83
2022-08-18T13:24:27.879Z,97.70
2022-08-18T13:25:38.345Z,96.26
2022-08-18T13:26:45.929Z,96.15
2022-08-18T13:27:52.185Z,95.00
2022-08-18T13:28:57.984Z,94.64
2022-08-18T13:30:00.814Z,93.96
2022-08-18T13:31:05.435Z,99.13
2022-08-18T13:32:09.375Z,96.91
2022-08-18T13:33:33.977Z,94.19
2022-08-18T13:34:34.454Z,92.85
2022-08-18T13:35:44.647Z,91.88
2022-08-18T13:36:48.229Z,92.89
2022-08-18T13:37:50.727Z,95.60
2022-08-18T13:38:54.598Z,94.96
2022-08-18T13:39:58.147Z,95.06
2022-08-18T13:41:04.908Z,95.18
2022-08-18T13:42:26.482Z,94.78
2022-08-18T13:43:44.683Z,97.18
2022-08-18T13:44:53.213Z,95.02
2022-08-18T13:45:56.561Z,92.57
2022-08-18T13:46:58.881Z,100.00
2022-08-18T13:48:01.270Z,100.00
2022-08-18T13:49:04.435Z,98.66
2022-08-18T13:50:10.061Z,95.81
2022-08-18T13:51:23.576Z,93.97
2022-08-18T13:52:34.442Z,91.91
2022-08-18T13:53:50.631Z,91.17
2022-08-18T13:55:00.408Z,89.16
2022-08-18T13:56:03.524Z,89.52
2022-08-18T13:57:06.958Z,87.60
2022-08-18T13:58:20.322Z,87.94
2022-08-18T13:59:23.688Z,88.79
2022-08-18T14:00:30.785Z,91.77
2022-08-18T14:01:45.401Z,98.68
2022-08-18T14:02:57.064Z,100.00
2022-08-18T14:03:59.478Z,100.00
2022-08-18T14:05:02.060Z,100.00
2022-08-18T14:06:08.132Z,100.00
2022-08-18T14:07:12.578Z,100.00
2022-08-18T14:08:21.156Z,100.00
2022-08-18T14:09:36.001Z,100.00
2022-08-18T14:10:40.269Z,100.00
2022-08-18T14:11:42.602Z,100.00
2022-08-18T14:12:56.696Z,100.00
2022-08-18T14:14:00.214Z,100.00
2022-08-18T14:15:07.337Z,100.00
2022-08-18T14:16:10.400Z,97.80
2022-08-18T14:17:13.084Z,100.00
2022-08-18T14:18:16.248Z,98.19
2022-08-18T14:19:37.303Z,98.50
2022-08-18T14:21:01.747Z,100.00
2022-08-18T14:22:23.030Z,100.00
2022-08-18T14:23:52.886Z,100.00
2022-08-18T14:25:30.465Z,100.00
2022-08-18T14:26:49.826Z,100.00
2022-08-18T14:27:56.135Z,100.00
2022-08-18T14:28:59.505Z,100.00
2022-08-18T14:30:04.876Z,100.00
2022-08-18T14:31:07.310Z,100.00
2022-08-18T14:32:13.228Z,100.00
2022-08-18T14:33:22.386Z,100.00
2022-08-18T14:34:37.170Z,100.00
2022-08-18T14:36:06.022Z,100.00
2022-08-18T14:37:01.810Z,100.00
2022-08-18T14:38:05.056Z,100.00
2022-08-18T14:39:08.331Z,100.00
2022-08-18T14:40:12.351Z,100.00
2022-08-18T14:41:15.161Z,100.00
2022-08-18T14:42:21.363Z,100.00
2022-08-18T14:44:00.453Z,100.00
2022-08-18T14:45:18.008Z,100.00
2022-08-18T14:46:34.742Z,100.00
2022-08-18T14:47:37.276Z,100.00
2022-08-18T14:48:42.486Z,100.00
2022-08-18T14:49:47.960Z,99.77
2022-08-18T14:50:55.362Z,98.87
2022-08-18T14:52:02.199Z,98.81